createdAt,value
2023-05-10T00:00:40.755Z,58.84
2023-05-10T00:01:40.804Z,58.92
2023-05-10T00:02:40.898Z,59.08
2023-05-10T00:03:40.933Z,58.64
2023-05-10T00:04:40.907Z,58.75
2023-05-10T00:05:40.924Z,58.53
2023-05-10T00:06:40.975Z,58.82
2023-05-10T00:07:41.010Z,59.14
2023-05-10T00:08:41.081Z,59.19
2023-05-10T00:09:41.121Z,59.16
2023-05-10T00:10:41.173Z,59.09
2023-05-10T00:11:41.216Z,59.00
2023-05-10T00:12:41.312Z,58.72
2023-05-10T00:13:41.331Z,58.72
2023-05-10T00:14:41.365Z,58.94
2023-05-10T00:15:41.404Z,58.99
2023-05-10T00:16:41.490Z,58.82
2023-05-10T00:17:41.564Z,58.83
2023-05-10T00:18:41.577Z,58.95
2023-05-10T00:19:41.626Z,58.99
2023-05-10T00:20:41.677Z,59.08
2023-05-10T00:21:41.728Z,59.21
2023-05-10T00:22:41.775Z,58.94
2023-05-10T00:23:41.841Z,59.13
2023-05-10T00:24:41.884Z,59.24
2023-05-10T00:25:41.928Z,59.29
2023-05-10T00:26:41.995Z,59.12
2023-05-10T00:27:42.047Z,59.10
2023-05-10T00:28:42.136Z,59.16
2023-05-10T00:29:42.189Z,59.25
2023-05-10T00:30:42.257Z,59.33
2023-05-10T00:31:42.384Z,59.30
2023-05-10T00:32:42.378Z,59.41
2023-05-10T00:33:42.425Z,59.44
2023-05-10T00:34:42.491Z,59.32
2023-05-10T00:35:42.525Z,59.03
2023-05-10T00:36:42.616Z,58.96
2023-05-10T00:37:42.647Z,59.21
2023-05-10T00:38:42.759Z,59.05
2023-05-10T00:39:42.788Z,59.12
2023-05-10T00:40:42.826Z,59.22
2023-05-10T00:41:42.897Z,59.38
2023-05-10T00:42:42.943Z,59.27
2023-05-10T00:43:43.024Z,59.29
2023-05-10T00:44:43.080Z,58.54
2023-05-10T00:45:43.159Z,58.36
2023-05-10T00:46:43.191Z,58.30
2023-05-10T00:47:43.274Z,58.76
2023-05-10T00:48:43.326Z,58.71
2023-05-10T00:49:43.384Z,58.85
2023-05-10T00:50:43.446Z,58.95
2023-05-10T00:51:43.518Z,59.02
2023-05-10T00:52:43.570Z,59.25
2023-05-10T00:53:43.591Z,59.23
2023-05-10T00:54:43.624Z,59.25
2023-05-10T00:55:43.676Z,59.33
2023-05-10T00:56:43.729Z,59.02
2023-05-10T00:57:43.753Z,59.47
2023-05-10T00:58:43.791Z,59.69
2023-05-10T00:59:43.831Z,59.88
2023-05-10T01:00:43.885Z,59.87
2023-05-10T01:01:43.972Z,59.54
2023-05-10T01:02:44.079Z,59.53
2023-05-10T01:03:44.082Z,59.50
2023-05-10T01:04:44.193Z,59.51
2023-05-10T01:05:44.198Z,59.20
2023-05-10T01:06:44.263Z,59.00
2023-05-10T01:07:44.320Z,59.07
2023-05-10T01:08:44.387Z,59.19
2023-05-10T01:09:44.433Z,59.24
2023-05-10T01:10:44.502Z,59.20
2023-05-10T01:11:44.569Z,59.32
2023-05-10T01:12:44.645Z,59.23
2023-05-10T01:13:44.684Z,59.02
2023-05-10T01:14:44.723Z,59.05
2023-05-10T01:15:44.790Z,59.17
2023-05-10T01:16:44.836Z,59.41
2023-05-10T01:17:44.917Z,59.17
2023-05-10T01:18:44.952Z,59.23
2023-05-10T01:19:45.027Z,59.49
2023-05-10T01:20:45.068Z,59.34
2023-05-10T01:21:45.114Z,59.51
2023-05-10T01:22:45.200Z,59.65
2023-05-10T01:23:45.247Z,59.58
2023-05-10T01:24:45.288Z,59.71
2023-05-10T01:25:45.345Z,59.85
2023-05-10T01:26:45.368Z,59.95
2023-05-10T01:27:45.435Z,59.92
2023-05-10T01:28:45.466Z,59.95
2023-05-10T01:29:45.493Z,59.81
2023-05-10T01:30:45.524Z,59.93
2023-05-10T01:31:45.565Z,60.07
2023-05-10T01:32:45.619Z,60.05
2023-05-10T01:33:45.575Z,60.04
2023-05-10T01:34:45.612Z,59.73
2023-05-10T01:35:45.658Z,59.59
2023-05-10T01:36:45.726Z,59.43
2023-05-10T01:37:45.743Z,59.03
2023-05-10T01:38:45.784Z,58.90
2023-05-10T01:39:45.767Z,59.00
2023-05-10T01:40:45.788Z,59.17
2023-05-10T01:41:45.824Z,58.86
2023-05-10T01:42:45.861Z,59.02
2023-05-10T01:43:45.871Z,59.14
2023-05-10T01:44:45.877Z,58.86
2023-05-10T01:45:45.903Z,58.91
2023-05-10T01:46:45.949Z,59.01
2023-05-10T01:47:45.984Z,58.91
2023-05-10T01:48:45.975Z,58.69
2023-05-10T01:49:45.986Z,58.92
2023-05-10T01:50:45.982Z,59.17
2023-05-10T01:51:45.976Z,59.24
2023-05-10T01:52:45.977Z,58.85
2023-05-10T01:53:45.976Z,58.58
2023-05-10T01:54:45.987Z,58.94
2023-05-10T01:55:45.992Z,58.78
2023-05-10T01:56:45.994Z,59.06
2023-05-10T01:57:46.024Z,59.37
2023-05-10T01:58:46.025Z,59.28
2023-05-10T01:59:46.038Z,59.06
2023-05-10T02:00:46.076Z,59.42
2023-05-10T02:01:46.083Z,59.48
2023-05-10T02:02:46.075Z,59.27
2023-05-10T02:03:46.132Z,59.32
2023-05-10T02:04:46.060Z,59.43
2023-05-10T02:05:46.067Z,59.62
2023-05-10T02:06:46.073Z,59.48
2023-05-10T02:07:46.084Z,59.51
2023-05-10T02:08:46.107Z,58.95
2023-05-10T02:09:46.135Z,59.03
2023-05-10T02:10:46.140Z,58.89
2023-05-10T02:11:46.174Z,58.62
2023-05-10T02:12:46.197Z,58.81
2023-05-10T02:13:46.188Z,58.87
2023-05-10T02:14:46.171Z,58.29
2023-05-10T02:15:46.149Z,58.47
2023-05-10T02:16:46.169Z,58.67
2023-05-10T02:17:46.196Z,58.32
2023-05-10T02:18:46.197Z,58.39
2023-05-10T02:19:46.175Z,58.39
2023-05-10T02:20:46.193Z,58.11
2023-05-10T02:21:46.195Z,58.45
2023-05-10T02:22:46.213Z,58.22
2023-05-10T02:23:46.201Z,58.33
2023-05-10T02:24:46.216Z,58.49
2023-05-10T02:25:46.206Z,58.49
2023-05-10T02:26:46.222Z,58.49
2023-05-10T02:27:46.268Z,58.31
2023-05-10T02:28:46.244Z,58.44
2023-05-10T02:29:46.241Z,58.56
2023-05-10T02:30:46.223Z,58.87
2023-05-10T02:31:46.290Z,59.19
2023-05-10T02:32:46.344Z,59.09
2023-05-10T02:33:46.260Z,59.27
2023-05-10T02:34:46.260Z,59.19
2023-05-10T02:35:46.279Z,59.27
2023-05-10T02:36:46.298Z,59.10
2023-05-10T02:37:46.362Z,59.25
2023-05-10T02:38:46.434Z,59.33
2023-05-10T02:39:46.475Z,58.84
2023-05-10T02:40:46.532Z,58.48
2023-05-10T02:41:46.589Z,58.47
2023-05-10T02:42:46.655Z,57.94
2023-05-10T02:43:46.680Z,57.83
2023-05-10T02:44:46.732Z,57.55
2023-05-10T02:45:46.791Z,57.97
2023-05-10T02:46:46.764Z,57.71
2023-05-10T02:47:46.798Z,57.80
2023-05-10T02:48:46.790Z,57.96
2023-05-10T02:49:46.774Z,57.60
2023-05-10T02:50:46.792Z,57.90
2023-05-10T02:51:46.821Z,58.73
2023-05-10T02:52:46.835Z,59.01
2023-05-10T02:53:46.849Z,59.16
2023-05-10T02:54:46.854Z,59.22
2023-05-10T02:55:46.855Z,59.53
2023-05-10T02:56:46.870Z,59.78
2023-05-10T02:57:46.879Z,59.78
2023-05-10T02:58:47.672Z,59.78
2023-05-10T02:59:46.913Z,59.57
2023-05-10T03:00:46.892Z,59.72
2023-05-10T03:01:46.944Z,59.72
2023-05-10T03:02:47.011Z,59.64
2023-05-10T03:03:46.962Z,59.21
2023-05-10T03:04:46.986Z,58.96
2023-05-10T03:05:46.988Z,59.15
2023-05-10T03:06:47.010Z,59.36
2023-05-10T03:07:47.035Z,59.45
2023-05-10T03:08:47.036Z,59.27
2023-05-10T03:09:47.046Z,58.37
2023-05-10T03:10:47.070Z,58.19
2023-05-10T03:11:47.099Z,58.26
2023-05-10T03:12:47.132Z,58.47
2023-05-10T03:13:47.132Z,58.49
2023-05-10T03:14:47.153Z,59.09
2023-05-10T03:15:47.218Z,58.49
2023-05-10T03:16:47.197Z,58.91
2023-05-10T03:17:47.224Z,58.67
2023-05-10T03:18:47.223Z,58.93
2023-05-10T03:19:47.222Z,58.88
2023-05-10T03:20:47.262Z,59.11
2023-05-10T03:21:47.254Z,58.60
2023-05-10T03:22:47.280Z,58.21
2023-05-10T03:23:47.292Z,58.13
2023-05-10T03:24:47.304Z,58.40
2023-05-10T03:25:47.336Z,58.79
2023-05-10T03:26:47.335Z,58.75
2023-05-10T03:27:47.358Z,58.51
2023-05-10T03:28:47.372Z,58.81
2023-05-10T03:29:47.431Z,58.40
2023-05-10T03:30:47.413Z,58.94
2023-05-10T03:31:47.611Z,58.73
2023-05-10T03:32:47.488Z,58.87
2023-05-10T03:33:47.476Z,58.63
2023-05-10T03:34:47.498Z,58.88
2023-05-10T03:35:47.527Z,59.13
2023-05-10T03:36:47.545Z,58.94
2023-05-10T03:37:47.565Z,58.46
2023-05-10T03:38:47.556Z,58.85
2023-05-10T03:39:47.614Z,58.71
2023-05-10T03:40:47.648Z,58.69
2023-05-10T03:41:47.683Z,58.76
2023-05-10T03:42:47.738Z,58.76
2023-05-10T03:43:47.738Z,59.08
2023-05-10T03:44:47.778Z,58.98
2023-05-10T03:45:47.804Z,59.25
2023-05-10T03:46:47.888Z,59.26
2023-05-10T03:47:47.915Z,58.93
2023-05-10T03:48:47.891Z,58.20
2023-05-10T03:49:47.967Z,57.97
2023-05-10T03:50:47.960Z,57.75
2023-05-10T03:51:48.022Z,57.99
2023-05-10T03:52:48.071Z,58.53
2023-05-10T03:53:48.098Z,58.00
2023-05-10T03:54:48.126Z,57.97
2023-05-10T03:55:48.164Z,58.22
2023-05-10T03:56:48.194Z,58.18
2023-05-10T03:57:48.236Z,58.45
2023-05-10T03:58:48.271Z,58.43
2023-05-10T03:59:48.304Z,58.30
2023-05-10T04:00:48.343Z,58.34
2023-05-10T04:01:48.369Z,58.13
2023-05-10T04:02:48.509Z,58.31
2023-05-10T04:03:48.491Z,57.93
2023-05-10T04:04:48.490Z,58.27
2023-05-10T04:05:48.525Z,58.69
2023-05-10T04:06:48.546Z,58.48
2023-05-10T04:07:48.573Z,58.73
2023-05-10T04:08:48.609Z,58.93
2023-05-10T04:09:48.637Z,58.72
2023-05-10T04:10:48.674Z,58.76
2023-05-10T04:11:48.731Z,58.82
2023-05-10T04:12:48.771Z,58.85
2023-05-10T04:13:48.829Z,58.98
2023-05-10T04:14:48.808Z,58.77
2023-05-10T04:15:48.826Z,58.33
2023-05-10T04:16:48.884Z,58.43
2023-05-10T04:17:48.898Z,58.54
2023-05-10T04:18:48.930Z,58.74
2023-05-10T04:19:48.937Z,58.93
2023-05-10T04:20:48.957Z,58.93
2023-05-10T04:21:48.978Z,59.01
2023-05-10T04:22:49.058Z,59.02
2023-05-10T04:23:49.066Z,58.95
2023-05-10T04:24:49.083Z,58.77
2023-05-10T04:25:49.099Z,58.97
2023-05-10T04:26:49.118Z,58.18
2023-05-10T04:27:49.151Z,58.14
2023-05-10T04:28:49.194Z,58.04
2023-05-10T04:29:49.240Z,58.17
2023-05-10T04:30:49.291Z,57.93
2023-05-10T04:31:49.344Z,57.94
2023-05-10T04:32:49.481Z,57.98
2023-05-10T04:33:49.426Z,58.30
2023-05-10T04:34:49.466Z,58.38
2023-05-10T04:35:49.502Z,58.47
2023-05-10T04:36:49.543Z,58.60
2023-05-10T04:37:49.553Z,58.61
2023-05-10T04:38:49.590Z,58.73
2023-05-10T04:39:49.603Z,58.47
2023-05-10T04:40:49.635Z,58.26
2023-05-10T04:41:49.649Z,58.55
2023-05-10T04:42:49.672Z,58.10
2023-05-10T04:43:49.733Z,58.21
2023-05-10T04:44:49.743Z,57.95
2023-05-10T04:45:49.779Z,58.41
2023-05-10T04:46:49.878Z,58.66
2023-05-10T04:47:49.973Z,58.86
2023-05-10T04:48:49.963Z,58.50
2023-05-10T04:49:49.944Z,58.43
2023-05-10T04:50:50.007Z,58.94
2023-05-10T04:51:50.044Z,58.57
2023-05-10T04:52:50.115Z,58.65
2023-05-10T04:54:01.568Z,58.87
2023-05-10T04:54:51.138Z,58.59
2023-05-10T04:55:50.129Z,58.69
2023-05-10T04:56:50.128Z,58.56
2023-05-10T04:57:50.136Z,58.57
2023-05-10T04:58:50.135Z,58.21
2023-05-10T04:59:50.652Z,58.27
2023-05-10T05:00:50.093Z,58.42
2023-05-10T05:01:50.125Z,58.54
2023-05-10T05:02:50.103Z,58.67
2023-05-10T05:03:50.893Z,58.94
2023-05-10T05:04:50.215Z,58.94
2023-05-10T05:05:50.147Z,59.07
2023-05-10T05:06:51.716Z,58.79
2023-05-10T05:07:50.149Z,59.05
2023-05-10T05:08:50.144Z,59.24
2023-05-10T05:09:50.092Z,59.13
2023-05-10T05:10:50.104Z,59.11
2023-05-10T05:11:50.106Z,58.81
2023-05-10T05:12:50.114Z,58.89
2023-05-10T05:13:50.103Z,58.83
2023-05-10T05:14:50.072Z,58.45
2023-05-10T05:15:50.106Z,58.76
2023-05-10T05:16:50.064Z,59.00
2023-05-10T05:17:50.096Z,58.71
2023-05-10T05:18:50.043Z,58.63
2023-05-10T05:19:50.046Z,58.57
2023-05-10T05:20:50.035Z,58.99
2023-05-10T05:21:50.031Z,59.19
2023-05-10T05:22:50.017Z,59.68
2023-05-10T05:23:50.709Z,60.04
2023-05-10T05:24:50.027Z,60.33
2023-05-10T05:25:50.078Z,60.72
2023-05-10T05:26:50.004Z,60.55
2023-05-10T05:27:50.288Z,58.90
2023-05-10T05:28:50.002Z,59.06
2023-05-10T05:29:50.014Z,59.05
2023-05-10T05:30:49.966Z,59.30
2023-05-10T05:31:50.078Z,59.70
2023-05-10T05:32:50.037Z,59.13
2023-05-10T05:33:49.949Z,58.88
2023-05-10T05:34:49.932Z,59.08
2023-05-10T05:35:49.967Z,59.03
2023-05-10T05:36:49.912Z,58.91
2023-05-10T05:37:49.911Z,59.17
2023-05-10T05:38:49.886Z,59.25
2023-05-10T05:39:49.968Z,59.27
2023-05-10T05:40:49.898Z,59.22
2023-05-10T05:41:49.904Z,59.38
2023-05-10T05:42:49.915Z,59.57
2023-05-10T05:43:49.877Z,59.57
2023-05-10T05:44:49.940Z,59.87
2023-05-10T05:45:49.856Z,60.05
2023-05-10T05:46:49.829Z,59.72
2023-05-10T05:47:49.842Z,59.49
2023-05-10T05:48:49.831Z,59.66
2023-05-10T05:49:50.222Z,59.21
2023-05-10T05:50:49.819Z,59.35
2023-05-10T05:51:49.797Z,59.53
2023-05-10T05:52:49.809Z,59.51
2023-05-10T05:53:49.851Z,59.29
2023-05-10T05:54:50.231Z,59.25
2023-05-10T05:55:50.763Z,59.22
2023-05-10T05:56:49.750Z,59.18
2023-05-10T05:57:49.775Z,58.88
2023-05-10T05:58:49.774Z,59.02
2023-05-10T05:59:49.788Z,59.14
2023-05-10T06:00:49.840Z,59.09
2023-05-10T06:01:49.840Z,59.14
2023-05-10T06:03:51.129Z,59.80
2023-05-10T06:04:49.880Z,60.19
2023-05-10T06:05:49.844Z,60.09
2023-05-10T06:06:49.824Z,60.08
2023-05-10T06:07:49.835Z,59.93
2023-05-10T06:08:49.832Z,59.48
2023-05-10T06:09:49.797Z,59.30
2023-05-10T06:10:49.808Z,59.43
2023-05-10T06:11:49.844Z,59.29
2023-05-10T06:12:49.818Z,58.86
2023-05-10T06:13:49.786Z,59.57
2023-05-10T06:14:51.738Z,59.82
2023-05-10T06:15:49.786Z,59.57
2023-05-10T06:16:49.825Z,59.48
2023-05-10T06:17:49.798Z,59.59
2023-05-10T06:18:49.793Z,59.27
2023-05-10T06:19:50.312Z,59.23
2023-05-10T06:20:49.773Z,59.24
2023-05-10T06:21:51.175Z,59.41
2023-05-10T06:22:49.955Z,59.13
2023-05-10T06:23:50.017Z,59.87
2023-05-10T06:24:49.937Z,59.80
2023-05-10T06:25:49.944Z,59.80
2023-05-10T06:26:49.971Z,59.70
2023-05-10T06:27:53.636Z,59.07
2023-05-10T06:28:50.002Z,59.27
2023-05-10T06:29:52.286Z,59.29
2023-05-10T06:30:50.931Z,59.16
2023-05-10T06:31:50.021Z,58.85
2023-05-10T06:32:49.962Z,58.29
2023-05-10T06:33:49.939Z,58.40
2023-05-10T06:34:50.741Z,58.44
2023-05-10T06:35:49.939Z,58.45
2023-05-10T06:36:49.951Z,58.90
2023-05-10T06:37:49.913Z,58.50
2023-05-10T06:38:50.007Z,58.41
2023-05-10T06:39:50.260Z,58.53
2023-05-10T06:40:49.951Z,58.36
2023-05-10T06:41:49.940Z,58.49
2023-05-10T06:42:49.949Z,58.37
2023-05-10T06:43:49.966Z,58.49
2023-05-10T06:44:49.973Z,58.26
2023-05-10T06:45:49.971Z,58.27
2023-05-10T06:46:50.086Z,58.64
2023-05-10T06:47:50.086Z,59.26
2023-05-10T06:48:50.014Z,58.59
2023-05-10T06:49:50.044Z,58.56
2023-05-10T06:50:50.041Z,58.34
2023-05-10T06:51:50.067Z,58.44
2023-05-10T06:52:52.312Z,58.75
2023-05-10T06:53:50.061Z,58.48
2023-05-10T06:54:50.089Z,58.50
2023-05-10T06:55:50.028Z,57.95
2023-05-10T06:56:50.016Z,58.18
2023-05-10T06:57:50.027Z,58.45
2023-05-10T06:58:50.022Z,58.59
2023-05-10T06:59:50.009Z,58.56
2023-05-10T07:00:50.027Z,57.97
2023-05-10T07:01:50.056Z,58.23
2023-05-10T07:02:50.026Z,58.22
2023-05-10T07:03:50.000Z,58.14
2023-05-10T07:04:49.971Z,58.58
2023-05-10T07:05:49.989Z,58.87
2023-05-10T07:06:49.954Z,58.65
2023-05-10T07:07:49.926Z,58.21
2023-05-10T07:08:49.934Z,57.93
2023-05-10T07:09:49.963Z,58.46
2023-05-10T07:10:49.935Z,58.03
2023-05-10T07:11:49.984Z,58.37
2023-05-10T07:12:49.970Z,58.25
2023-05-10T07:13:49.900Z,58.51
2023-05-10T07:14:50.259Z,58.15
2023-05-10T07:15:49.948Z,58.56
2023-05-10T07:16:49.866Z,58.32
2023-05-10T07:17:50.232Z,58.12
2023-05-10T07:18:49.935Z,58.65
2023-05-10T07:19:50.308Z,58.33
2023-05-10T07:20:49.943Z,58.01
2023-05-10T07:21:49.872Z,57.26
2023-05-10T07:22:49.849Z,57.29
2023-05-10T07:23:49.828Z,56.37
2023-05-10T07:24:49.866Z,55.37
2023-05-10T07:25:49.819Z,55.61
2023-05-10T07:26:50.310Z,55.34
2023-05-10T07:27:49.810Z,55.57
2023-05-10T07:28:49.820Z,55.80
2023-05-10T07:29:49.835Z,55.32
2023-05-10T07:30:49.862Z,54.75
2023-05-10T07:31:50.279Z,55.07
2023-05-10T07:32:49.799Z,55.10
2023-05-10T07:33:49.752Z,55.55
2023-05-10T07:34:49.757Z,55.59
2023-05-10T07:35:49.735Z,56.47
2023-05-10T07:36:49.754Z,56.39
2023-05-10T07:37:50.266Z,56.54
2023-05-10T07:38:49.756Z,56.80
2023-05-10T07:39:49.727Z,56.18
2023-05-10T07:40:49.801Z,56.03
2023-05-10T07:41:49.715Z,56.56
2023-05-10T07:42:49.710Z,55.93
2023-05-10T07:43:49.724Z,56.25
2023-05-10T07:44:49.700Z,56.52
2023-05-10T07:45:49.730Z,56.23
2023-05-10T07:46:49.826Z,56.11
2023-05-10T07:47:49.725Z,55.67
2023-05-10T07:48:49.810Z,55.66
2023-05-10T07:49:49.785Z,55.17
2023-05-10T07:50:49.778Z,54.09
2023-05-10T07:51:49.816Z,54.85
2023-05-10T07:52:49.831Z,55.22
2023-05-10T07:53:49.940Z,55.23
2023-05-10T07:54:50.278Z,54.58
2023-05-10T07:55:49.983Z,54.76
2023-05-10T07:56:50.011Z,54.99
2023-05-10T07:57:50.106Z,54.86
2023-05-10T07:58:50.114Z,55.33
2023-05-10T07:59:50.248Z,55.15
2023-05-10T08:00:50.192Z,55.54
2023-05-10T08:01:51.768Z,55.73
2023-05-10T08:02:50.319Z,55.79
2023-05-10T08:03:50.331Z,55.91
2023-05-10T08:04:50.308Z,55.92
2023-05-10T08:05:50.332Z,55.76
2023-05-10T08:06:50.390Z,55.84
2023-05-10T08:07:50.404Z,55.70
2023-05-10T08:08:50.481Z,55.79
2023-05-10T08:09:50.539Z,55.39
2023-05-10T08:10:50.532Z,55.66
2023-05-10T08:11:50.584Z,55.29
2023-05-10T08:12:50.638Z,55.65
2023-05-10T08:13:50.652Z,55.55
2023-05-10T08:14:50.755Z,55.68
2023-05-10T08:15:50.751Z,56.10
2023-05-10T08:16:50.759Z,56.21
2023-05-10T08:17:50.814Z,56.27
2023-05-10T08:18:50.833Z,55.52
2023-05-10T08:19:51.264Z,55.42
2023-05-10T08:20:50.944Z,55.83
2023-05-10T08:21:50.939Z,56.10
2023-05-10T08:22:51.940Z,55.72
2023-05-10T08:23:51.020Z,56.04
2023-05-10T08:24:51.320Z,55.61
2023-05-10T08:25:51.053Z,55.79
2023-05-10T08:26:51.067Z,56.05
2023-05-10T08:27:51.110Z,55.91
2023-05-10T08:28:51.177Z,55.92
2023-05-10T08:29:51.172Z,55.80
2023-05-10T08:30:51.156Z,56.12
2023-05-10T08:31:51.221Z,56.04
2023-05-10T08:32:51.263Z,54.92
2023-05-10T08:33:51.267Z,55.35
2023-05-10T08:34:51.294Z,55.26
2023-05-10T08:35:51.312Z,55.46
2023-05-10T08:36:51.389Z,55.54
2023-05-10T08:37:51.399Z,55.37
2023-05-10T08:38:52.175Z,55.39
2023-05-10T08:39:51.761Z,55.09
2023-05-10T08:40:51.448Z,55.80
2023-05-10T08:41:51.494Z,55.39
2023-05-10T08:42:51.518Z,54.75
2023-05-10T08:43:51.526Z,54.80
2023-05-10T08:44:51.779Z,54.89
2023-05-10T08:45:51.578Z,54.51
2023-05-10T08:46:51.619Z,54.15
2023-05-10T08:47:51.609Z,53.92
2023-05-10T08:48:51.615Z,54.15
2023-05-10T08:49:51.632Z,53.50
2023-05-10T08:50:51.804Z,53.85
2023-05-10T08:51:51.692Z,54.06
2023-05-10T08:52:51.710Z,54.70
2023-05-10T08:53:51.747Z,54.97
2023-05-10T08:54:51.869Z,55.12
2023-05-10T08:55:51.755Z,55.66
2023-05-10T08:56:51.789Z,56.15
2023-05-10T08:57:51.841Z,54.87
2023-05-10T08:58:51.838Z,54.21
2023-05-10T08:59:51.860Z,53.58
2023-05-10T09:00:51.954Z,52.90
2023-05-10T09:01:51.918Z,53.46
2023-05-10T09:02:51.990Z,53.79
2023-05-10T09:03:52.003Z,54.06
2023-05-10T09:04:52.214Z,53.97
2023-05-10T09:05:52.304Z,53.67
2023-05-10T09:06:52.071Z,54.29
2023-05-10T09:07:52.135Z,53.99
2023-05-10T09:08:52.131Z,54.80
2023-05-10T09:09:52.214Z,54.92
2023-05-10T09:10:52.289Z,54.78
2023-05-10T09:11:52.249Z,54.49
2023-05-10T09:12:52.286Z,54.44
2023-05-10T09:13:52.335Z,54.74
2023-05-10T09:14:52.364Z,54.90
2023-05-10T09:15:52.794Z,54.83
2023-05-10T09:16:52.469Z,54.87
2023-05-10T09:17:52.508Z,54.99
2023-05-10T09:18:52.502Z,54.84
2023-05-10T09:19:52.518Z,55.22
2023-05-10T09:20:52.853Z,55.16
2023-05-10T09:21:52.613Z,54.93
2023-05-10T09:22:52.649Z,54.73
2023-05-10T09:23:52.689Z,55.06
2023-05-10T09:24:52.704Z,54.94
2023-05-10T09:25:52.803Z,55.00
2023-05-10T09:26:52.746Z,54.92
2023-05-10T09:27:52.771Z,54.77
2023-05-10T09:28:52.752Z,55.28
2023-05-10T09:29:52.763Z,56.00
2023-05-10T09:30:52.870Z,55.13
2023-05-10T09:31:52.787Z,55.09
2023-05-10T09:32:52.815Z,55.45
2023-05-10T09:33:52.805Z,54.80
2023-05-10T09:34:52.849Z,55.20
2023-05-10T09:35:53.280Z,55.05
2023-05-10T09:36:52.839Z,55.39
2023-05-10T09:37:52.868Z,55.67
2023-05-10T09:38:52.874Z,55.41
2023-05-10T09:39:52.854Z,54.77
2023-05-10T09:40:53.304Z,54.80
2023-05-10T09:41:52.878Z,55.12
2023-05-10T09:42:52.878Z,55.04
2023-05-10T09:43:52.897Z,55.41
2023-05-10T09:44:52.916Z,55.51
2023-05-10T09:45:53.304Z,55.75
2023-05-10T09:46:52.897Z,56.07
2023-05-10T09:47:53.011Z,56.16
2023-05-10T09:48:52.923Z,56.19
2023-05-10T09:49:52.939Z,56.27
2023-05-10T09:50:52.939Z,56.16
2023-05-10T09:51:52.907Z,56.27
2023-05-10T09:52:52.923Z,56.03
2023-05-10T09:53:52.927Z,56.00
2023-05-10T09:54:52.922Z,56.17
2023-05-10T09:55:52.921Z,56.23
2023-05-10T09:56:52.919Z,56.03
2023-05-10T09:57:52.926Z,55.30
2023-05-10T09:58:52.960Z,55.30
2023-05-10T09:59:52.945Z,55.16
2023-05-10T10:00:52.984Z,55.00
2023-05-10T10:01:53.001Z,55.51
2023-05-10T10:02:52.987Z,55.33
2023-05-10T10:03:52.974Z,55.56
2023-05-10T10:04:52.997Z,56.14
2023-05-10T10:05:52.953Z,56.41
2023-05-10T10:06:52.960Z,56.12
2023-05-10T10:07:52.940Z,56.18
2023-05-10T10:08:54.936Z,55.88
2023-05-10T10:09:52.982Z,55.43
2023-05-10T10:10:52.996Z,55.65
2023-05-10T10:11:52.974Z,54.45
2023-05-10T10:12:52.947Z,54.51
2023-05-10T10:13:52.948Z,55.43
2023-05-10T10:14:52.954Z,55.59
2023-05-10T10:15:53.313Z,55.97
2023-05-10T10:17:06.603Z,55.54
2023-05-10T10:17:53.993Z,55.73
2023-05-10T10:18:52.975Z,55.86
2023-05-10T10:19:52.924Z,55.03
2023-05-10T10:20:52.905Z,54.75
2023-05-10T10:21:52.904Z,54.61
2023-05-10T10:22:52.874Z,54.20
2023-05-10T10:23:52.886Z,54.55
2023-05-10T10:24:53.621Z,54.06
2023-05-10T10:25:53.846Z,54.66
2023-05-10T10:26:52.922Z,54.80
2023-05-10T10:27:52.947Z,54.82
2023-05-10T10:28:52.956Z,54.35
2023-05-10T10:29:52.994Z,53.41
2023-05-10T10:30:53.057Z,53.17
2023-05-10T10:31:53.204Z,53.17
2023-05-10T10:32:53.233Z,52.80
2023-05-10T10:33:53.220Z,53.04
2023-05-10T10:34:53.286Z,53.60
2023-05-10T10:35:53.825Z,52.88
2023-05-10T10:36:53.346Z,53.03
2023-05-10T10:37:53.402Z,53.52
2023-05-10T10:38:53.468Z,54.21
2023-05-10T10:39:53.545Z,54.05
2023-05-10T10:40:53.569Z,54.03
2023-05-10T10:41:53.640Z,53.76
2023-05-10T10:42:53.723Z,54.05
2023-05-10T10:43:53.724Z,54.50
2023-05-10T10:44:53.756Z,53.69
2023-05-10T10:45:53.783Z,54.19
2023-05-10T10:46:53.823Z,54.15
2023-05-10T10:47:53.777Z,54.19
2023-05-10T10:48:53.773Z,54.20
2023-05-10T10:49:53.784Z,54.70
2023-05-10T10:50:53.771Z,54.86
2023-05-10T10:51:53.780Z,54.47
2023-05-10T10:52:53.839Z,54.81
2023-05-10T10:53:53.759Z,55.18
2023-05-10T10:54:53.747Z,55.38
2023-05-10T10:55:53.749Z,55.11
2023-05-10T10:56:53.773Z,54.29
2023-05-10T10:57:53.767Z,55.43
2023-05-10T10:58:53.788Z,55.25
2023-05-10T10:59:53.809Z,55.13
2023-05-10T11:00:53.878Z,54.73
2023-05-10T11:01:53.803Z,55.39
2023-05-10T11:02:53.921Z,55.51
2023-05-10T11:03:53.859Z,55.44
2023-05-10T11:04:53.806Z,55.79
2023-05-10T11:05:53.890Z,56.16
2023-05-10T11:06:53.848Z,55.95
2023-05-10T11:07:53.872Z,56.42
2023-05-10T11:08:53.870Z,56.81
2023-05-10T11:09:53.866Z,56.78
2023-05-10T11:10:53.945Z,56.11
2023-05-10T11:11:53.852Z,55.61
2023-05-10T11:12:53.877Z,56.13
2023-05-10T11:13:53.874Z,56.21
2023-05-10T11:14:53.960Z,56.38
2023-05-10T11:15:53.919Z,56.32
2023-05-10T11:16:53.975Z,55.90
2023-05-10T11:17:53.926Z,56.06
2023-05-10T11:18:53.956Z,56.55
2023-05-10T11:19:53.897Z,55.08
2023-05-10T11:20:53.992Z,55.01
2023-05-10T11:21:53.922Z,54.91
2023-05-10T11:22:53.941Z,54.11
2023-05-10T11:23:53.913Z,54.36
2023-05-10T11:24:53.926Z,54.67
2023-05-10T11:25:53.944Z,54.45
2023-05-10T11:26:53.924Z,53.30
2023-05-10T11:27:53.942Z,53.73
2023-05-10T11:28:53.946Z,53.17
2023-05-10T11:29:53.982Z,52.78
2023-05-10T11:30:54.131Z,53.01
2023-05-10T11:31:54.070Z,53.40
2023-05-10T11:32:54.184Z,53.30
2023-05-10T11:33:54.187Z,52.56
2023-05-10T11:34:54.208Z,52.24
2023-05-10T11:35:54.283Z,52.32
2023-05-10T11:36:54.319Z,52.58
2023-05-10T11:37:54.368Z,51.96
2023-05-10T11:38:54.422Z,51.19
2023-05-10T11:39:54.483Z,50.81
2023-05-10T11:40:54.522Z,50.66
2023-05-10T11:41:54.665Z,51.74
2023-05-10T11:42:54.568Z,52.12
2023-05-10T11:43:54.574Z,52.51
2023-05-10T11:44:54.565Z,52.11
2023-05-10T11:45:54.603Z,51.90
2023-05-10T11:46:54.586Z,51.41
2023-05-10T11:47:54.641Z,50.87
2023-05-10T11:48:54.601Z,51.66
2023-05-10T11:49:54.596Z,52.61
2023-05-10T11:50:54.597Z,52.89
2023-05-10T11:51:54.672Z,52.76
2023-05-10T11:52:54.617Z,51.71
2023-05-10T11:53:54.665Z,51.69
2023-05-10T11:54:54.669Z,52.52
2023-05-10T11:55:54.706Z,52.20
2023-05-10T11:56:54.732Z,51.91
2023-05-10T11:57:54.802Z,51.61
2023-05-10T11:58:54.797Z,51.89
2023-05-10T11:59:54.833Z,51.91
2023-05-10T12:00:54.920Z,51.03
2023-05-10T12:01:54.983Z,51.02
2023-05-10T12:02:55.059Z,50.05
2023-05-10T12:03:55.142Z,50.64
2023-05-10T12:04:55.046Z,49.89
2023-05-10T12:05:54.951Z,50.09
2023-05-10T12:06:55.328Z,50.21
2023-05-10T12:07:54.930Z,51.60
2023-05-10T12:08:54.949Z,51.54
2023-05-10T12:09:54.902Z,52.47
2023-05-10T12:10:54.911Z,52.48
2023-05-10T12:11:55.342Z,51.97
2023-05-10T12:12:54.906Z,52.36
2023-05-10T12:13:54.908Z,53.04
2023-05-10T12:14:54.885Z,54.42
2023-05-10T12:15:54.893Z,53.52
2023-05-10T12:16:55.431Z,53.56
2023-05-10T12:17:54.873Z,53.51
2023-05-10T12:18:55.023Z,53.47
2023-05-10T12:19:54.848Z,53.68
2023-05-10T12:20:54.840Z,53.11
2023-05-10T12:21:54.808Z,52.72
2023-05-10T12:22:54.833Z,53.61
2023-05-10T12:23:54.828Z,52.98
2023-05-10T12:24:54.873Z,53.24
2023-05-10T12:25:54.868Z,53.62
2023-05-10T12:26:54.905Z,53.35
2023-05-10T12:27:54.915Z,53.57
2023-05-10T12:28:54.927Z,53.43
2023-05-10T12:29:54.928Z,52.93
2023-05-10T12:30:54.932Z,52.85
2023-05-10T12:31:55.012Z,53.31
2023-05-10T12:32:54.979Z,54.03
2023-05-10T12:33:54.997Z,54.15
2023-05-10T12:34:55.010Z,53.51
2023-05-10T12:35:55.048Z,53.35
2023-05-10T12:36:55.064Z,54.05
2023-05-10T12:37:55.056Z,54.51
2023-05-10T12:38:55.087Z,54.68
2023-05-10T12:39:55.108Z,54.88
2023-05-10T12:40:55.154Z,55.06
2023-05-10T12:41:55.139Z,54.95
2023-05-10T12:42:55.192Z,54.93
2023-05-10T12:43:55.152Z,54.73
2023-05-10T12:44:55.163Z,54.47
2023-05-10T12:45:55.245Z,54.45
2023-05-10T12:46:55.359Z,54.81
2023-05-10T12:47:55.276Z,55.02
2023-05-10T12:49:06.781Z,55.50
2023-05-10T12:49:56.239Z,55.79
2023-05-10T12:50:55.231Z,56.04
2023-05-10T12:51:55.206Z,55.82
2023-05-10T12:52:55.213Z,55.29
2023-05-10T12:53:55.210Z,55.33